Time,TemperatureF,DewpointF,PressureIn,WindDirection,WindDirectionDegrees,WindSpeedMPH,WindSpeedGustMPH,Humidity,HourlyPrecipIn,Conditions,Clouds,dailyrainin,SoftwareType,DateUTC
2013-08-08 00:02:00,67.4,44.8,30.05,SW,235,2.0,5.0,44,0.00,,,0.00,vanprod-2.5-rc3,2013-08-08 06:02:00,
2013-08-08 00:07:00,67.2,44.6,30.06,WSW,250,4.0,4.0,44,0.00,,,0.00,vanprod-2.5-rc3,2013-08-08 06:07:00,
2013-08-08 00:12:00,67.0,45.0,30.05,SW,218,0.0,2.0,45,0.00,,,0.00,vanprod-2.5-rc3,2013-08-08 06:12:00,
2013-08-08 00:17:00,66.8,44.8,30.05,WSW,239,9.0,9.0,45,0.00,,,0.00,vanprod-2.5-rc3,2013-08-08 06:17:00,
2013-08-08 00:22:00,66.6,45.2,30.05,WSW,239,1.0,1.0,46,0.00,,,0.00,vanprod-2.5-rc3,2013-08-08 06:22:00,
2013-08-08 00:27:00,66.5,45.1,30.06,WSW,250,3.0,3.0,46,0.00,,,0.00,vanprod-2.5-rc3,2013-08-08 06:27:00,
2013-08-08 00:32:00,66.5,45.1,30.06,SSW,210,0.0,1.0,46,0.00,,,0.00,vanprod-2.5-rc3,2013-08-08 06:32:00,
2013-08-08 00:37:00,66.2,44.8,30.05,SW,226,0.0,1.0,46,0.00,,,0.00,vanprod-2.5-rc3,2013-08-08 06:37:00,
2013-08-08 00:42:00,66.0,45.2,30.05,SSW,196,0.0,0.0,47,0.00,,,0.00,vanprod-2.5-rc3,2013-08-08 06:42:00,
2013-08-08 00:47:00,65.8,45.0,30.05,SW,215,0.0,0.0,47,0.00,,,0.00,vanprod-2.5-rc3,2013-08-08 06:47:00,
2013-08-08 00:52:00,65.7,44.9,30.05,SSW,201,0.0,0.0,47,0.00,,,0.00,vanprod-2.5-rc3,2013-08-08 06:52:00,
2013-08-08 00:57:00,65.5,45.3,30.05,South,185,0.0,0.0,48,0.00,,,0.00,vanprod-2.5-rc3,2013-08-08 06:57:00,
2013-08-08 01:02:00,65.3,45.1,30.07,South,185,0.0,0.0,48,0.00,,,0.00,vanprod-2.5-rc3,2013-08-08 07:02:00,
2013-08-08 01:07:00,65.1,44.9,30.07,South,187,1.0,1.0,48,0.00,,,0.00,vanprod-2.5-rc3,2013-08-08 07:07:00,
2013-08-08 01:12:00,65.0,44.9,30.07,SSW,200,0.0,0.0,48,0.00,,,0.00,vanprod-2.5-rc3,2013-08-08 07:12:00,
2013-08-08 01:17:00,64.9,45.3,30.07,South,190,0.0,0.0,49,0.00,,,0.00,vanprod-2.5-rc3,2013-08-08 07:17:00,
2013-08-08 01:22:00,64.8,45.2,30.07,South,185,0.0,0.0,49,0.00,,,0.00,vanprod-2.5-rc3,2013-08-08 07:22:00,
2013-08-08 01:27:00,64.7,45.1,30.06,SSW,201,3.0,0.0,49,0.00,,,0.00,vanprod-2.5-rc3,2013-08-08 07:27:00,
2013-08-08 01:32:00,64.7,45.1,30.06,SSW,199,3.0,4.0,49,0.00,,,0.00,vanprod-2.5-rc3,2013-08-08 07:32:00,
2013-08-08 01:37:00,64.8,45.2,30.06,SSW,195,2.0,0.0,49,0.00,,,0.00,vanprod-2.5-rc3,2013-08-08 07:37:00,
2013-08-08 01:42:00,64.7,45.1,30.06,South,189,1.0,1.0,49,0.00,,,0.00,vanprod-2.5-rc3,2013-08-08 07:42:00,
2013-08-08 01:47:00,64.6,45.0,30.06,SSW,199,0.0,0.0,49,0.00,,,0.00,vanprod-2.5-rc3,2013-08-08 07:47:00,
2013-08-08 01:52:00,64.6,45.0,30.06,SSW,197,0.0,0.0,49,0.00,,,0.00,vanprod-2.5-rc3,2013-08-08 07:52:00,
2013-08-08 01:57:00,64.5,44.9,30.06,SW,218,0.0,0.0,49,0.00,,,0.00,vanprod-2.5-rc3,2013-08-08 07:57:00,
2013-08-08 02:02:00,64.5,44.9,30.06,SSW,195,0.0,0.0,49,0.00,,,0.00,vanprod-2.5-rc3,2013-08-08 08:02:00,
2013-08-08 02:07:00,64.4,44.8,30.05,SSW,194,0.0,0.0,49,0.00,,,0.00,vanprod-2.5-rc3,2013-08-08 08:07:00,
2013-08-08 02:12:00,64.3,45.3,30.05,SW,221,1.0,3.0,50,0.00,,,0.00,vanprod-2.5-rc3,2013-08-08 08:12:00,
2013-08-08 02:17:00,64.3,45.3,30.05,SW,223,0.0,0.0,50,0.00,,,0.00,vanprod-2.5-rc3,2013-08-08 08:17:00,
2013-08-08 02:22:00,64.3,45.3,30.05,WNW,285,0.0,0.0,50,0.00,,,0.00,vanprod-2.5-rc3,2013-08-08 08:22:00,
2013-08-08 02:27:00,64.2,45.2,30.05,WNW,286,0.0,0.0,50,0.00,,,0.00,vanprod-2.5-rc3,2013-08-08 08:27:00,
2013-08-08 02:32:00,64.1,45.1,30.05,WNW,286,0.0,0.0,50,0.00,,,0.00,vanprod-2.5-rc3,2013-08-08 08:32:00,
2013-08-08 02:37:00,64.0,45.5,30.05,WNW,286,0.0,0.0,51,0.00,,,0.00,vanprod-2.5-rc3,2013-08-08 08:37:00,
2013-08-08 02:42:00,63.8,44.8,30.05,WNW,286,0.0,0.0,50,0.00,,,0.00,vanprod-2.5-rc3,2013-08-08 08:42:00,
2013-08-08 02:47:00,63.5,45.1,30.05,WNW,286,0.0,0.0,51,0.00,,,0.00,vanprod-2.5-rc3,2013-08-08 08:47:00,
2013-08-08 02:52:00,63.3,44.9,30.05,WNW,286,0.0,0.0,51,0.00,,,0.00,vanprod-2.5-rc3,2013-08-08 08:52:00,
2013-08-08 02:57:00,63.1,44.7,30.05,WNW,286,0.0,0.0,51,0.00,,,0.00,vanprod-2.5-rc3,2013-08-08 08:57:00,
2013-08-08 03:02:00,62.7,44.8,30.05,WNW,286,0.0,0.0,52,0.00,,,0.00,vanprod-2.5-rc3,2013-08-08 09:02:00,
2013-08-08 03:07:00,62.4,44.6,30.05,WNW,286,0.0,0.0,52,0.00,,,0.00,vanprod-2.5-rc3,2013-08-08 09:07:00,
2013-08-08 03:12:00,62.1,44.8,30.05,WNW,286,0.0,0.0,53,0.00,,,0.00,vanprod-2.5-rc3,2013-08-08 09:12:00,
2013-08-08 03:17:00,61.8,44.0,30.05,WNW,286,0.0,0.0,52,0.00,,,0.00,vanprod-2.5-rc3,2013-08-08 09:17:00,
2013-08-08 03:22:00,61.5,44.2,30.05,NE,38,0.0,0.0,53,0.00,,,0.00,vanprod-2.5-rc3,2013-08-08 09:22:00,
2013-08-08 03:27:00,61.1,43.9,30.04,NE,45,0.0,0.0,53,0.00,,,0.00,vanprod-2.5-rc3,2013-08-08 09:27:00,
2013-08-08 03:32:00,60.8,43.6,30.04,NE,45,0.0,0.0,53,0.00,,,0.00,vanprod-2.5-rc3,2013-08-08 09:32:00,
2013-08-08 03:37:00,60.5,43.8,30.04,NE,45,0.0,0.0,54,0.00,,,0.00,vanprod-2.5-rc3,2013-08-08 09:37:00,
2013-08-08 03:42:00,60.2,43.5,30.04,NE,45,0.0,0.0,54,0.00,,,0.00,vanprod-2.5-rc3,2013-08-08 09:42:00,
2013-08-08 03:47:00,59.9,43.2,30.04,NE,45,0.0,0.0,54,0.00,,,0.00,vanprod-2.5-rc3,2013-08-08 09:47:00,
2013-08-08 03:52:00,59.6,43.4,30.04,NE,45,0.0,0.0,55,0.00,,,0.00,vanprod-2.5-rc3,2013-08-08 09:52:00,
2013-08-08 03:57:00,59.4,43.2,30.04,NE,45,0.0,0.0,55,0.00,,,0.00,vanprod-2.5-rc3,2013-08-08 09:57:00,
2013-08-08 04:02:00,59.2,43.1,30.05,NE,45,0.0,0.0,55,0.00,,,0.00,vanprod-2.5-rc3,2013-08-08 10:02:00,
2013-08-08 04:07:00,59.0,43.3,30.05,NE,49,0.0,0.0,56,0.00,,,0.00,vanprod-2.5-rc3,2013-08-08 10:07:00,
2013-08-08 04:12:00,59.0,43.3,30.05,NE,49,0.0,0.0,56,0.00,,,0.00,vanprod-2.5-rc3,2013-08-08 10:12:00,
2013-08-08 04:17:00,59.0,43.3,30.05,NE,49,0.0,0.0,56,0.00,,,0.00,vanprod-2.5-rc3,2013-08-08 10:17:00,
2013-08-08 04:22:00,59.0,43.3,30.05,NE,49,0.0,0.0,56,0.00,,,0.00,vanprod-2.5-rc3,2013-08-08 10:22:00,
2013-08-08 04:27:00,59.0,43.3,30.05,NE,49,0.0,0.0,56,0.00,,,0.00,vanprod-2.5-rc3,2013-08-08 10:27:00,
2013-08-08 04:32:00,58.8,43.2,30.05,NE,51,0.0,0.0,56,0.00,,,0.00,vanprod-2.5-rc3,2013-08-08 10:32:00,
2013-08-08 04:37:00,58.6,43.4,30.05,NE,51,0.0,0.0,57,0.00,,,0.00,vanprod-2.5-rc3,2013-08-08 10:37:00,
2013-08-08 04:42:00,58.4,43.2,30.06,NE,51,0.0,0.0,57,0.00,,,0.00,vanprod-2.5-rc3,2013-08-08 10:42:00,
2013-08-08 04:47:00,58.3,43.2,30.06,NE,51,0.0,0.0,57,0.00,,,0.00,vanprod-2.5-rc3,2013-08-08 10:47:00,
2013-08-08 04:52:00,58.2,43.5,30.06,NE,53,0.0,0.0,58,0.00,,,0.00,vanprod-2.5-rc3,2013-08-08 10:52:00,
2013-08-08 04:57:00,58.3,43.6,30.06,NE,55,0.0,0.0,58,0.00,,,0.00,vanprod-2.5-rc3,2013-08-08 10:57:00,
2013-08-08 05:02:00,58.7,43.5,30.06,NE,55,0.0,0.0,57,0.00,,,0.00,vanprod-2.5-rc3,2013-08-08 11:02:00,
2013-08-08 05:07:00,58.9,43.7,30.06,NE,55,0.0,0.0,57,0.00,,,0.00,vanprod-2.5-rc3,2013-08-08 11:07:00,
2013-08-08 05:12:00,58.8,43.6,30.06,NE,55,0.0,0.0,57,0.00,,,0.00,vanprod-2.5-rc3,2013-08-08 11:12:00,
2013-08-08 05:17:00,58.5,43.3,30.06,ENE,59,0.0,0.0,57,0.00,,,0.00,vanprod-2.5-rc3,2013-08-08 11:17:00,
2013-08-08 05:22:00,58.4,43.7,30.05,ENE,66,2.0,4.0,58,0.00,,,0.00,vanprod-2.5-rc3,2013-08-08 11:22:00,
2013-08-08 05:27:00,58.4,43.7,30.05,ENE,73,1.0,2.0,58,0.00,,,0.00,vanprod-2.5-rc3,2013-08-08 11:27:00,
2013-08-08 05:32:00,58.7,44.0,30.06,East,86,2.0,2.0,58,0.00,,,0.00,vanprod-2.5-rc3,2013-08-08 11:32:00,
2013-08-08 05:37:00,59.0,43.8,30.06,East,89,2.0,2.0,57,0.00,,,0.00,vanprod-2.5-rc3,2013-08-08 11:37:00,
2013-08-08 05:42:00,59.0,43.8,30.06,ENE,75,3.0,3.0,57,0.00,,,0.00,vanprod-2.5-rc3,2013-08-08 11:42:00,
2013-08-08 05:47:00,59.0,43.8,30.07,ENE,78,2.0,2.0,57,0.00,,,0.00,vanprod-2.5-rc3,2013-08-08 11:47:00,
2013-08-08 05:52:00,59.0,43.8,30.07,ENE,78,2.0,2.0,57,0.00,,,0.00,vanprod-2.5-rc3,2013-08-08 11:52:00,
2013-08-08 05:57:00,59.0,43.8,30.08,ENE,74,1.0,0.0,57,0.00,,,0.00,vanprod-2.5-rc3,2013-08-08 11:57:00,
2013-08-08 06:02:00,59.0,43.8,30.07,ENE,67,0.0,0.0,57,0.00,,,0.00,vanprod-2.5-rc3,2013-08-08 12:02:00,
2013-08-08 06:07:00,59.0,43.8,30.08,ENE,67,0.0,0.0,57,0.00,,,0.00,vanprod-2.5-rc3,2013-08-08 12:07:00,
2013-08-08 06:12:00,59.0,43.8,30.08,ENE,68,0.0,0.0,57,0.00,,,0.00,vanprod-2.5-rc3,2013-08-08 12:12:00,
2013-08-08 06:17:00,59.0,43.8,30.08,ENE,67,0.0,0.0,57,0.00,,,0.00,vanprod-2.5-rc3,2013-08-08 12:17:00,
2013-08-08 06:22:00,59.0,43.8,30.09,ENE,68,0.0,0.0,57,0.00,,,0.00,vanprod-2.5-rc3,2013-08-08 12:22:00,
2013-08-08 06:27:00,59.0,43.8,30.09,ENE,67,0.0,0.0,57,0.00,,,0.00,vanprod-2.5-rc3,2013-08-08 12:27:00,
2013-08-08 06:32:00,58.8,44.1,30.09,ENE,67,0.0,0.0,58,0.00,,,0.00,vanprod-2.5-rc3,2013-08-08 12:32:00,
2013-08-08 06:37:00,58.6,43.9,30.09,ENE,67,0.0,0.0,58,0.00,,,0.00,vanprod-2.5-rc3,2013-08-08 12:37:00,
2013-08-08 06:42:00,58.5,44.2,30.09,ENE,67,0.0,0.0,59,0.00,,,0.00,vanprod-2.5-rc3,2013-08-08 12:42:00,
2013-08-08 06:47:00,58.4,44.1,30.09,ENE,68,0.0,0.0,59,0.00,,,0.00,vanprod-2.5-rc3,2013-08-08 12:47:00,
2013-08-08 06:52:00,58.3,44.1,30.09,ENE,68,0.0,0.0,59,0.00,,,0.00,vanprod-2.5-rc3,2013-08-08 12:52:00,
2013-08-08 06:57:00,58.3,44.1,30.09,ENE,67,0.0,0.0,59,0.00,,,0.00,vanprod-2.5-rc3,2013-08-08 12:57:00,
2013-08-08 07:02:00,58.3,44.1,30.08,ENE,66,0.0,0.0,59,0.00,,,0.00,vanprod-2.5-rc3,2013-08-08 13:02:00,
2013-08-08 07:07:00,58.5,44.7,30.08,ENE,62,0.0,0.0,60,0.00,,,0.00,vanprod-2.5-rc3,2013-08-08 13:07:00,
2013-08-08 07:12:00,58.8,45.0,30.10,ENE,58,2.0,2.0,60,0.00,,,0.00,vanprod-2.5-rc3,2013-08-08 13:12:00,
2013-08-08 07:17:00,59.0,45.1,30.10,ENE,62,0.0,0.0,60,0.00,,,0.00,vanprod-2.5-rc3,2013-08-08 13:17:00,
2013-08-08 07:22:00,59.0,44.7,30.09,ENE,62,0.0,0.0,59,0.00,,,0.00,vanprod-2.5-rc3,2013-08-08 13:22:00,
2013-08-08 07:27:00,59.3,45.0,30.11,ENE,66,0.0,0.0,59,0.00,,,0.00,vanprod-2.5-rc3,2013-08-08 13:27:00,
2013-08-08 07:32:00,59.6,44.8,30.10,SE,124,0.0,0.0,58,0.00,,,0.00,vanprod-2.5-rc3,2013-08-08 13:32:00,
2013-08-08 07:37:00,59.8,45.0,30.09,SE,144,0.0,0.0,58,0.00,,,0.00,vanprod-2.5-rc3,2013-08-08 13:37:00,
2013-08-08 07:42:00,60.1,44.8,30.09,SE,145,0.0,0.0,57,0.00,,,0.00,vanprod-2.5-rc3,2013-08-08 13:42:00,
2013-08-08 07:47:00,60.4,45.1,30.09,SE,144,0.0,0.0,57,0.00,,,0.00,vanprod-2.5-rc3,2013-08-08 13:47:00,
2013-08-08 07:52:00,60.7,44.9,30.09,SSE,155,0.0,0.0,56,0.00,,,0.00,vanprod-2.5-rc3,2013-08-08 13:52:00,
2013-08-08 07:57:00,61.1,44.8,30.09,South,188,1.0,0.0,55,0.00,,,0.00,vanprod-2.5-rc3,2013-08-08 13:57:00,
2013-08-08 08:02:00,61.6,45.3,30.10,South,187,0.0,0.0,55,0.00,,,0.00,vanprod-2.5-rc3,2013-08-08 14:02:00,
2013-08-08 08:07:00,62.0,45.7,30.10,South,185,0.0,0.0,55,0.00,,,0.00,vanprod-2.5-rc3,2013-08-08 14:07:00,
2013-08-08 08:12:00,62.5,45.6,30.09,South,185,0.0,0.0,54,0.00,,,0.00,vanprod-2.5-rc3,2013-08-08 14:12:00,
2013-08-08 08:17:00,63.0,45.6,30.09,South,188,0.0,0.0,53,0.00,,,0.00,vanprod-2.5-rc3,2013-08-08 14:17:00,
2013-08-08 08:22:00,63.6,45.7,30.10,SSW,194,0.0,0.0,52,0.00,,,0.00,vanprod-2.5-rc3,2013-08-08 14:22:00,
2013-08-08 08:27:00,63.7,47.2,30.10,NNE,33,2.0,0.0,55,0.00,,,0.00,vanprod-2.5-rc3,2013-08-08 14:27:00,
2013-08-08 08:32:00,63.9,46.9,30.10,ESE,102,0.0,2.0,54,0.00,,,0.00,vanprod-2.5-rc3,2013-08-08 14:32:00,
2013-08-08 08:37:00,64.3,46.3,30.11,ENE,74,2.0,0.0,52,0.00,,,0.00,vanprod-2.5-rc3,2013-08-08 14:37:00,
2013-08-08 08:42:00,64.9,46.4,30.10,ENE,68,2.0,5.0,51,0.00,,,0.00,vanprod-2.5-rc3,2013-08-08 14:42:00,
2013-08-08 08:47:00,65.3,46.7,30.10,ENE,74,0.0,0.0,51,0.00,,,0.00,vanprod-2.5-rc3,2013-08-08 14:47:00,
2013-08-08 08:52:00,65.8,45.6,30.09,ENE,76,3.0,5.0,48,0.00,,,0.00,vanprod-2.5-rc3,2013-08-08 14:52:00,
2013-08-08 08:57:00,66.3,46.0,30.10,East,80,2.0,3.0,48,0.00,,,0.00,vanprod-2.5-rc3,2013-08-08 14:57:00,
2013-08-08 09:02:00,66.8,45.9,30.11,ENE,74,1.0,3.0,47,0.00,,,0.00,vanprod-2.5-rc3,2013-08-08 15:02:00,
2013-08-08 09:07:00,67.3,47.5,30.11,NNE,23,0.0,0.0,49,0.00,,,0.00,vanprod-2.5-rc3,2013-08-08 15:07:00,
2013-08-08 09:12:00,66.8,47.6,30.11,NNE,18,5.0,5.0,50,0.00,,,0.00,vanprod-2.5-rc3,2013-08-08 15:12:00,
2013-08-08 09:17:00,66.1,46.9,30.11,NNE,31,5.0,5.0,50,0.00,,,0.00,vanprod-2.5-rc3,2013-08-08 15:17:00,
2013-08-08 09:22:00,66.0,47.4,30.11,NNE,28,3.0,3.0,51,0.00,,,0.00,vanprod-2.5-rc3,2013-08-08 15:22:00,
2013-08-08 09:27:00,66.5,47.3,30.11,NNE,26,4.0,6.0,50,0.00,,,0.00,vanprod-2.5-rc3,2013-08-08 15:27:00,
2013-08-08 09:32:00,66.8,46.5,30.10,NNE,20,6.0,6.0,48,0.00,,,0.00,vanprod-2.5-rc3,2013-08-08 15:32:00,
2013-08-08 09:37:00,67.2,46.9,30.11,NNE,20,4.0,4.0,48,0.00,,,0.00,vanprod-2.5-rc3,2013-08-08 15:37:00,
2013-08-08 09:42:00,67.3,46.4,30.10,NNE,22,4.0,4.0,47,0.00,,,0.00,vanprod-2.5-rc3,2013-08-08 15:42:00,
2013-08-08 09:47:00,67.4,46.5,30.11,NNE,28,5.0,5.0,47,0.00,,,0.00,vanprod-2.5-rc3,2013-08-08 15:47:00,
2013-08-08 09:52:00,67.5,46.6,30.10,NNE,30,4.0,6.0,47,0.00,,,0.00,vanprod-2.5-rc3,2013-08-08 15:52:00,
2013-08-08 09:57:00,67.6,46.1,30.10,NE,41,4.0,6.0,46,0.00,,,0.00,vanprod-2.5-rc3,2013-08-08 15:57:00,
2013-08-08 10:02:00,67.8,46.3,30.11,NE,35,3.0,3.0,46,0.00,,,0.00,vanprod-2.5-rc3,2013-08-08 16:02:00,
2013-08-08 10:07:00,68.0,47.0,30.11,NNE,24,3.0,4.0,47,0.00,,,0.00,vanprod-2.5-rc3,2013-08-08 16:07:00,
2013-08-08 10:12:00,68.4,46.8,30.11,NNE,28,2.0,2.0,46,0.00,,,0.00,vanprod-2.5-rc3,2013-08-08 16:12:00,
2013-08-08 10:17:00,68.6,47.0,30.10,NNE,23,5.0,5.0,46,0.00,,,0.00,vanprod-2.5-rc3,2013-08-08 16:17:00,
2013-08-08 10:58:00,71.2,47.6,30.10,North,357,0.0,2.0,43,0.00,,,0.00,vanprod-2.5-rc3,2013-08-08 16:58:00,
2013-08-08 11:03:00,71.1,48.1,30.08,North,358,2.0,0.0,44,0.00,,,0.00,vanprod-2.5-rc3,2013-08-08 17:03:00,
2013-08-08 11:08:00,71.3,47.0,30.09,NNE,14,1.0,1.0,42,0.00,,,0.00,vanprod-2.5-rc3,2013-08-08 17:08:00,
2013-08-08 11:13:00,71.3,46.4,30.08,NNW,338,0.0,0.0,41,0.00,,,0.00,vanprod-2.5-rc3,2013-08-08 17:13:00,
2013-08-08 11:18:00,71.4,47.1,30.08,WNW,300,0.0,2.0,42,0.00,,,0.00,vanprod-2.5-rc3,2013-08-08 17:18:00,
2013-08-08 11:23:00,72.0,47.0,30.09,NNW,340,1.0,0.0,41,0.00,,,0.00,vanprod-2.5-rc3,2013-08-08 17:23:00,
2013-08-08 11:28:00,72.4,47.4,30.09,WSW,239,1.0,1.0,41,0.00,,,0.00,vanprod-2.5-rc3,2013-08-08 17:28:00,
2013-08-08 11:33:00,73.2,46.8,30.09,WSW,247,2.0,4.0,39,0.00,,,0.00,vanprod-2.5-rc3,2013-08-08 17:33:00,
2013-08-08 11:38:00,73.5,46.4,30.08,West,275,0.0,0.0,38,0.00,,,0.00,vanprod-2.5-rc3,2013-08-08 17:38:00,
2013-08-08 11:43:00,73.9,47.4,30.08,WNW,290,0.0,0.0,39,0.00,,,0.00,vanprod-2.5-rc3,2013-08-08 17:43:00,
2013-08-08 11:48:00,74.3,47.1,30.08,SSW,207,0.0,0.0,38,0.00,,,0.00,vanprod-2.5-rc3,2013-08-08 17:48:00,
2013-08-08 11:53:00,75.0,47.0,30.07,South,187,3.0,4.0,37,0.00,,,0.00,vanprod-2.5-rc3,2013-08-08 17:53:00,
2013-08-08 11:58:00,75.7,46.9,30.09,WSW,242,1.0,0.0,36,0.00,,,0.00,vanprod-2.5-rc3,2013-08-08 17:58:00,
2013-08-08 12:03:00,76.1,48.0,30.08,South,187,2.0,6.0,37,0.00,,,0.00,vanprod-2.5-rc3,2013-08-08 18:03:00,
2013-08-08 12:08:00,76.2,47.3,30.08,West,262,3.0,3.0,36,0.00,,,0.00,vanprod-2.5-rc3,2013-08-08 18:08:00,
2013-08-08 12:13:00,76.2,47.3,30.08,SW,214,4.0,12.0,36,0.00,,,0.00,vanprod-2.5-rc3,2013-08-08 18:13:00,
2013-08-08 12:18:00,75.8,47.0,30.08,SW,224,3.0,4.0,36,0.00,,,0.00,vanprod-2.5-rc3,2013-08-08 18:18:00,
2013-08-08 12:23:00,75.7,46.9,30.08,SW,229,2.0,0.0,36,0.00,,,0.00,vanprod-2.5-rc3,2013-08-08 18:23:00,
2013-08-08 12:28:00,75.8,47.7,30.07,SW,232,2.0,4.0,37,0.00,,,0.00,vanprod-2.5-rc3,2013-08-08 18:28:00,
2013-08-08 12:33:00,76.5,47.6,30.07,SW,228,3.0,6.0,36,0.00,,,0.00,vanprod-2.5-rc3,2013-08-08 18:33:00,
2013-08-08 12:38:00,76.7,47.8,30.05,SSW,209,0.0,2.0,36,0.00,,,0.00,vanprod-2.5-rc3,2013-08-08 18:38:00,
2013-08-08 12:43:00,76.9,47.9,30.05,SW,228,1.0,1.0,36,0.00,,,0.00,vanprod-2.5-rc3,2013-08-08 18:43:00,
2013-08-08 12:48:00,77.6,47.8,30.05,SW,219,1.0,1.0,35,0.00,,,0.00,vanprod-2.5-rc3,2013-08-08 18:48:00,
2013-08-08 12:53:00,78.0,46.6,30.05,SW,233,3.0,5.0,33,0.00,,,0.00,vanprod-2.5-rc3,2013-08-08 18:53:00,
2013-08-08 12:58:00,78.1,46.7,30.05,WSW,251,1.0,0.0,33,0.00,,,0.00,vanprod-2.5-rc3,2013-08-08 18:58:00,
2013-08-08 13:03:00,78.2,47.6,30.04,SW,228,1.0,4.0,34,0.00,,,0.00,vanprod-2.5-rc3,2013-08-08 19:03:00,
2013-08-08 13:08:00,78.5,47.8,30.05,SW,217,1.0,0.0,34,0.00,,,0.00,vanprod-2.5-rc3,2013-08-08 19:08:00,
2013-08-08 13:13:00,78.7,48.0,30.05,SSW,197,0.0,0.0,34,0.00,,,0.00,vanprod-2.5-rc3,2013-08-08 19:13:00,
2013-08-08 13:18:00,79.0,45.8,30.05,WSW,237,0.0,0.0,31,0.00,,,0.00,vanprod-2.5-rc3,2013-08-08 19:18:00,
2013-08-08 13:23:00,80.0,45.8,30.05,WSW,244,2.0,2.0,30,0.00,,,0.00,vanprod-2.5-rc3,2013-08-08 19:23:00,
2013-08-08 13:28:00,81.2,46.0,30.03,West,280,2.0,6.0,29,0.00,,,0.00,vanprod-2.5-rc3,2013-08-08 19:28:00,
2013-08-08 13:33:00,81.6,45.4,30.03,WSW,255,2.0,3.0,28,0.00,,,0.00,vanprod-2.5-rc3,2013-08-08 19:33:00,
2013-08-08 13:38:00,82.1,44.8,30.03,West,281,5.0,5.0,27,0.00,,,0.00,vanprod-2.5-rc3,2013-08-08 19:38:00,
2013-08-08 13:43:00,82.7,44.4,30.02,WSW,252,5.0,6.0,26,0.00,,,0.00,vanprod-2.5-rc3,2013-08-08 19:43:00,
2013-08-08 13:48:00,82.5,44.2,30.02,WSW,251,5.0,15.0,26,0.00,,,0.00,vanprod-2.5-rc3,2013-08-08 19:48:00,
2013-08-08 13:53:00,82.5,43.2,30.01,SW,235,3.0,4.0,25,0.00,,,0.00,vanprod-2.5-rc3,2013-08-08 19:53:00,
2013-08-08 13:58:00,81.8,43.6,30.02,SW,215,4.0,7.0,26,0.00,,,0.00,vanprod-2.5-rc3,2013-08-08 19:58:00,
2013-08-08 14:03:00,80.5,42.5,30.01,WSW,245,8.0,9.0,26,0.00,,,0.00,vanprod-2.5-rc3,2013-08-08 20:03:00,
2013-08-08 14:08:00,80.0,43.1,30.02,SW,222,3.0,3.0,27,0.00,,,0.00,vanprod-2.5-rc3,2013-08-08 20:08:00,
2013-08-08 14:13:00,79.9,43.0,30.02,SW,217,4.0,4.0,27,0.00,,,0.00,vanprod-2.5-rc3,2013-08-08 20:13:00,
2013-08-08 14:18:00,80.1,43.1,30.02,SW,234,3.0,4.0,27,0.00,,,0.00,vanprod-2.5-rc3,2013-08-08 20:18:00,
2013-08-08 14:23:00,80.2,43.2,30.01,SW,232,2.0,7.0,27,0.00,,,0.00,vanprod-2.5-rc3,2013-08-08 20:23:00,
2013-08-08 14:28:00,80.3,41.3,30.01,SW,228,2.0,3.0,25,0.00,,,0.00,vanprod-2.5-rc3,2013-08-08 20:28:00,
2013-08-08 14:33:00,80.3,42.3,30.01,SW,227,0.0,0.0,26,0.00,,,0.00,vanprod-2.5-rc3,2013-08-08 20:33:00,
2013-08-08 14:38:00,80.5,41.5,30.00,SW,224,0.0,3.0,25,0.00,,,0.00,vanprod-2.5-rc3,2013-08-08 20:38:00,
2013-08-08 14:43:00,80.7,41.6,29.99,WSW,238,0.0,0.0,25,0.00,,,0.00,vanprod-2.5-rc3,2013-08-08 20:43:00,
2013-08-08 14:48:00,80.9,42.8,29.99,SSW,196,2.0,2.0,26,0.00,,,0.00,vanprod-2.5-rc3,2013-08-08 20:48:00,
2013-08-08 14:53:00,81.6,43.4,29.99,SW,218,0.0,3.0,26,0.00,,,0.00,vanprod-2.5-rc3,2013-08-08 20:53:00,
2013-08-08 14:58:00,82.7,44.4,30.00,SSW,210,0.0,0.0,26,0.00,,,0.00,vanprod-2.5-rc3,2013-08-08 20:58:00,
2013-08-08 15:03:00,84.5,43.8,29.99,SSE,159,0.0,0.0,24,0.00,,,0.00,vanprod-2.5-rc3,2013-08-08 21:03:00,
2013-08-08 15:08:00,86.2,42.9,30.00,North,357,3.0,4.0,22,0.00,,,0.00,vanprod-2.5-rc3,2013-08-08 21:08:00,
2013-08-08 15:13:00,87.0,42.4,29.99,WNW,285,2.0,3.0,21,0.00,,,0.00,vanprod-2.5-rc3,2013-08-08 21:13:00,
2013-08-08 15:18:00,87.2,42.6,29.99,NNE,29,5.0,6.0,21,0.00,,,0.00,vanprod-2.5-rc3,2013-08-08 21:18:00,
2013-08-08 15:23:00,88.2,43.4,29.99,NE,48,6.0,7.0,21,0.00,,,0.00,vanprod-2.5-rc3,2013-08-08 21:23:00,
2013-08-08 15:28:00,88.9,44.0,29.98,NNE,31,7.0,10.0,21,0.00,,,0.00,vanprod-2.5-rc3,2013-08-08 21:28:00,
2013-08-08 15:33:00,89.1,44.1,29.98,NNE,13,7.0,7.0,21,0.00,,,0.00,vanprod-2.5-rc3,2013-08-08 21:33:00,
2013-08-08 15:38:00,88.2,43.4,29.98,NE,45,6.0,6.0,21,0.00,,,0.00,vanprod-2.5-rc3,2013-08-08 21:38:00,
2013-08-08 15:43:00,88.4,43.5,29.98,NE,56,7.0,11.0,21,0.00,,,0.00,vanprod-2.5-rc3,2013-08-08 21:43:00,
2013-08-08 15:48:00,88.3,42.2,29.98,ENE,65,4.0,4.0,20,0.00,,,0.00,vanprod-2.5-rc3,2013-08-08 21:48:00,
2013-08-08 15:53:00,86.7,42.1,29.98,NE,47,6.0,9.0,21,0.00,,,0.00,vanprod-2.5-rc3,2013-08-08 21:53:00,
2013-08-08 15:58:00,85.1,42.0,29.97,NE,37,4.0,6.0,22,0.00,,,0.00,vanprod-2.5-rc3,2013-08-08 21:58:00,
2013-08-08 16:03:00,84.3,42.5,29.98,NE,37,5.0,11.0,23,0.00,,,0.00,vanprod-2.5-rc3,2013-08-08 22:03:00,
2013-08-08 16:09:00,84.2,42.4,29.98,NNE,13,12.0,13.0,23,0.00,,,0.00,vanprod-2.5-rc3,2013-08-08 22:09:00,
2013-08-08 16:14:00,83.4,41.8,29.98,NE,34,14.0,16.0,23,0.00,,,0.00,vanprod-2.5-rc3,2013-08-08 22:14:00,
2013-08-08 16:19:00,82.9,41.3,29.98,NE,34,13.0,13.0,23,0.00,,,0.00,vanprod-2.5-rc3,2013-08-08 22:19:00,
2013-08-08 16:24:00,82.2,42.9,29.99,NNE,22,5.0,11.0,25,0.00,,,0.00,vanprod-2.5-rc3,2013-08-08 22:24:00,
2013-08-08 16:29:00,82.5,43.2,29.98,NNE,15,6.0,11.0,25,0.00,,,0.00,vanprod-2.5-rc3,2013-08-08 22:29:00,
2013-08-08 16:34:00,82.9,42.4,29.98,NNE,23,8.0,8.0,24,0.00,,,0.00,vanprod-2.5-rc3,2013-08-08 22:34:00,
2013-08-08 16:39:00,82.3,41.9,29.99,NNE,29,9.0,9.0,24,0.00,,,0.00,vanprod-2.5-rc3,2013-08-08 22:39:00,
2013-08-08 16:44:00,81.4,41.2,29.99,NNE,33,10.0,13.0,24,0.00,,,0.00,vanprod-2.5-rc3,2013-08-08 22:44:00,
2013-08-08 16:49:00,80.8,41.7,29.99,NNE,33,8.0,10.0,25,0.00,,,0.00,vanprod-2.5-rc3,2013-08-08 22:49:00,
2013-08-08 16:54:00,80.6,41.6,29.99,NE,34,6.0,7.0,25,0.00,,,0.00,vanprod-2.5-rc3,2013-08-08 22:54:00,
2013-08-08 16:59:00,80.6,41.6,29.99,NE,36,8.0,12.0,25,0.00,,,0.00,vanprod-2.5-rc3,2013-08-08 22:59:00,
2013-08-08 17:04:00,80.6,41.6,29.99,NE,42,3.0,9.0,25,0.00,,,0.00,vanprod-2.5-rc3,2013-08-08 23:04:00,
2013-08-08 17:09:00,80.6,41.6,29.99,NNE,30,2.0,8.0,25,0.00,,,0.00,vanprod-2.5-rc3,2013-08-08 23:09:00,
2013-08-08 17:14:00,80.7,41.6,30.00,East,90,3.0,5.0,25,0.00,,,0.00,vanprod-2.5-rc3,2013-08-08 23:14:00,
2013-08-08 17:19:00,80.9,40.8,30.00,SSE,168,1.0,6.0,24,0.00,,,0.00,vanprod-2.5-rc3,2013-08-08 23:19:00,
2013-08-08 17:24:00,80.9,40.8,30.00,SSE,152,2.0,5.0,24,0.00,,,0.00,vanprod-2.5-rc3,2013-08-08 23:24:00,
2013-08-08 17:29:00,80.9,40.8,30.00,SE,132,1.0,2.0,24,0.00,,,0.00,vanprod-2.5-rc3,2013-08-08 23:29:00,
2013-08-08 17:34:00,80.6,40.5,30.01,NE,40,2.0,2.0,24,0.00,,,0.00,vanprod-2.5-rc3,2013-08-08 23:34:00,
2013-08-08 17:40:00,79.6,40.7,30.01,North,7,1.0,5.0,25,0.00,,,0.00,vanprod-2.5-rc3,2013-08-08 23:40:00,
2013-08-08 17:45:00,79.1,40.3,30.02,WSW,257,0.0,0.0,25,0.00,,,0.00,vanprod-2.5-rc3,2013-08-08 23:45:00,
2013-08-08 17:50:00,77.2,42.5,30.04,SW,222,11.0,18.0,29,0.00,,,0.00,vanprod-2.5-rc3,2013-08-08 23:50:00,
2013-08-08 17:55:00,75.8,43.0,30.02,SSW,207,9.0,19.0,31,0.00,,,0.00,vanprod-2.5-rc3,2013-08-08 23:55:00,
2013-08-08 18:00:00,74.8,43.0,30.03,WSW,254,2.0,5.0,32,0.00,,,0.00,vanprod-2.5-rc3,2013-08-09 00:00:00,
2013-08-08 18:05:00,73.6,43.5,30.05,WNW,286,10.0,13.0,34,0.00,,,0.00,vanprod-2.5-rc3,2013-08-09 00:05:00,
2013-08-08 18:10:00,73.0,43.8,30.04,WSW,250,1.0,0.0,35,0.00,,,0.00,vanprod-2.5-rc3,2013-08-09 00:10:00,
2013-08-08 18:15:00,72.7,44.2,30.05,SSW,199,1.0,4.0,36,0.00,,,0.00,vanprod-2.5-rc3,2013-08-09 00:15:00,
2013-08-08 18:20:00,72.6,44.9,30.07,SSW,203,1.0,1.0,37,0.00,,,0.00,vanprod-2.5-rc3,2013-08-09 00:20:00,
2013-08-08 18:25:00,72.4,46.1,30.08,South,187,2.0,2.0,39,0.00,,,0.00,vanprod-2.5-rc3,2013-08-09 00:25:00,
2013-08-08 18:30:00,71.8,46.2,30.08,South,186,2.0,4.0,40,0.00,,,0.00,vanprod-2.5-rc3,2013-08-09 00:30:00,
2013-08-08 18:35:00,71.4,45.2,30.07,South,175,3.0,6.0,39,0.00,,,0.00,vanprod-2.5-rc3,2013-08-09 00:35:00,
2013-08-08 18:40:00,71.3,45.1,30.06,South,188,3.0,6.0,39,0.00,,,0.00,vanprod-2.5-rc3,2013-08-09 00:40:00,
2013-08-08 18:46:00,71.2,45.7,30.07,SSW,206,3.0,7.0,40,0.00,,,0.00,vanprod-2.5-rc3,2013-08-09 00:46:00,
2013-08-08 18:50:00,70.7,45.9,30.08,SW,214,13.0,20.0,41,0.00,,,0.00,vanprod-2.5-rc3,2013-08-09 00:50:00,
2013-08-08 18:56:00,70.0,45.2,30.07,SW,226,5.0,5.0,41,0.00,,,0.00,vanprod-2.5-rc3,2013-08-09 00:56:00,
2013-08-08 19:01:00,69.8,45.7,30.10,South,186,8.0,17.0,42,0.00,,,0.00,vanprod-2.5-rc3,2013-08-09 01:01:00,
2013-08-08 19:06:00,69.4,46.6,30.10,South,188,4.0,4.0,44,0.00,,,0.00,vanprod-2.5-rc3,2013-08-09 01:06:00,
2013-08-08 19:11:00,69.2,43.9,30.07,South,184,8.0,9.0,40,0.00,,,0.00,vanprod-2.5-rc3,2013-08-09 01:11:00,
2013-08-08 19:16:00,69.5,44.8,30.09,South,174,1.0,3.0,41,0.00,,,0.00,vanprod-2.5-rc3,2013-08-09 01:16:00,
2013-08-08 19:21:00,69.9,46.4,30.09,South,185,3.0,7.0,43,0.00,,,0.00,vanprod-2.5-rc3,2013-08-09 01:21:00,
2013-08-08 19:26:00,69.7,46.2,30.07,South,183,5.0,7.0,43,0.00,,,0.00,vanprod-2.5-rc3,2013-08-09 01:26:00,
2013-08-08 19:32:00,69.0,48.5,30.09,South,186,6.0,12.0,48,0.00,,,0.00,vanprod-2.5-rc3,2013-08-09 01:32:00,
2013-08-08 19:37:00,68.0,48.1,30.07,South,179,3.0,0.0,49,0.00,,,0.00,vanprod-2.5-rc3,2013-08-09 01:37:00,
2013-08-08 19:42:00,67.5,49.3,30.07,SSE,150,3.0,6.0,52,0.00,,,0.00,vanprod-2.5-rc3,2013-08-09 01:42:00,
2013-08-08 19:47:00,67.2,50.0,30.06,SE,140,8.0,12.0,54,0.00,,,0.00,vanprod-2.5-rc3,2013-08-09 01:47:00,
2013-08-08 19:52:00,66.3,50.2,30.07,SE,143,8.0,12.0,56,0.00,,,0.00,vanprod-2.5-rc3,2013-08-09 01:52:00,
2013-08-08 19:57:00,65.8,48.2,30.07,SE,125,2.0,5.0,53,0.00,,,0.00,vanprod-2.5-rc3,2013-08-09 01:57:00,
2013-08-08 20:02:00,65.3,48.7,30.07,ENE,62,1.0,3.0,55,0.00,,,0.00,vanprod-2.5-rc3,2013-08-09 02:02:00,
2013-08-08 20:07:00,65.0,47.0,30.07,ENE,68,0.0,1.0,52,0.00,,,0.00,vanprod-2.5-rc3,2013-08-09 02:07:00,
2013-08-08 20:12:00,65.5,46.9,30.07,North,5,3.0,0.0,51,0.00,,,0.00,vanprod-2.5-rc3,2013-08-09 02:12:00,
2013-08-08 20:17:00,66.3,47.1,30.08,NW,316,2.0,3.0,50,0.00,,,0.00,vanprod-2.5-rc3,2013-08-09 02:17:00,
2013-08-08 20:22:00,66.5,46.2,30.08,WSW,251,0.0,0.0,48,0.00,,,0.00,vanprod-2.5-rc3,2013-08-09 02:22:00,
2013-08-08 20:28:00,66.5,46.2,30.08,SW,226,0.0,0.0,48,0.00,,,0.00,vanprod-2.5-rc3,2013-08-09 02:28:00,
2013-08-08 20:33:00,66.9,44.9,30.10,West,272,0.0,0.0,45,0.00,,,0.00,vanprod-2.5-rc3,2013-08-09 02:33:00,
2013-08-08 20:38:00,67.2,46.3,30.08,SSW,202,1.0,0.0,47,0.00,,,0.00,vanprod-2.5-rc3,2013-08-09 02:38:00,
2013-08-08 20:43:00,67.0,46.7,30.08,South,182,3.0,6.0,48,0.00,,,0.00,vanprod-2.5-rc3,2013-08-09 02:43:00,
2013-08-08 20:48:00,66.9,45.5,30.10,South,189,1.0,4.0,46,0.00,,,0.00,vanprod-2.5-rc3,2013-08-09 02:48:00,
2013-08-08 20:53:00,66.9,45.5,30.10,South,181,0.0,0.0,46,0.00,,,0.00,vanprod-2.5-rc3,2013-08-09 02:53:00,
2013-08-08 20:58:00,67.0,45.6,30.11,South,169,0.0,0.0,46,0.00,,,0.00,vanprod-2.5-rc3,2013-08-09 02:58:00,
2013-08-08 21:03:00,67.0,46.1,30.09,South,170,0.0,0.0,47,0.00,,,0.00,vanprod-2.5-rc3,2013-08-09 03:03:00,
2013-08-08 21:08:00,66.9,44.9,30.11,South,179,0.0,0.0,45,0.00,,,0.00,vanprod-2.5-rc3,2013-08-09 03:08:00,
2013-08-08 21:13:00,66.9,44.3,30.09,South,180,0.0,0.0,44,0.00,,,0.00,vanprod-2.5-rc3,2013-08-09 03:13:00,
2013-08-08 21:18:00,66.9,47.1,30.09,NNE,31,1.0,0.0,49,0.00,,,0.00,vanprod-2.5-rc3,2013-08-09 03:18:00,
2013-08-08 21:23:00,66.1,48.0,30.12,NNE,29,11.0,13.0,52,0.00,,,0.00,vanprod-2.5-rc3,2013-08-09 03:23:00,
2013-08-08 21:28:00,65.2,48.6,30.10,NE,37,3.0,4.0,55,0.00,,,0.00,vanprod-2.5-rc3,2013-08-09 03:28:00,
2013-08-08 21:33:00,64.7,48.7,30.11,NE,47,2.0,4.0,56,0.00,,,0.00,vanprod-2.5-rc3,2013-08-09 03:33:00,
2013-08-08 21:38:00,64.3,48.8,30.11,NE,54,3.0,5.0,57,0.00,,,0.00,vanprod-2.5-rc3,2013-08-09 03:38:00,
2013-08-08 21:44:00,64.0,48.5,30.11,NE,43,2.0,5.0,57,0.00,,,0.00,vanprod-2.5-rc3,2013-08-09 03:44:00,
2013-08-08 21:48:00,63.7,48.7,30.11,ENE,64,3.0,5.0,58,0.00,,,0.00,vanprod-2.5-rc3,2013-08-09 03:48:00,
2013-08-08 21:53:00,63.5,48.5,30.11,ENE,70,3.0,4.0,58,0.00,,,0.00,vanprod-2.5-rc3,2013-08-09 03:53:00,
2013-08-08 21:59:00,63.4,48.4,30.11,ENE,68,1.0,3.0,58,0.00,,,0.00,vanprod-2.5-rc3,2013-08-09 03:59:00,
2013-08-08 22:01:00,63.4,48.4,30.12,ENE,69,1.0,4.0,58,0.00,,,0.00,vanprod-2.5-rc3,2013-08-09 04:01:00,
2013-08-08 22:06:00,63.2,48.2,30.12,ENE,62,3.0,5.0,58,0.00,,,0.00,vanprod-2.5-rc3,2013-08-09 04:06:00,
2013-08-08 22:11:00,63.1,48.1,30.11,ENE,68,4.0,4.0,58,0.00,,,0.00,vanprod-2.5-rc3,2013-08-09 04:11:00,
2013-08-08 22:16:00,63.0,48.0,30.11,ENE,72,4.0,4.0,58,0.00,,,0.00,vanprod-2.5-rc3,2013-08-09 04:16:00,
2013-08-08 22:21:00,63.0,47.5,30.09,ENE,76,0.0,0.0,57,0.00,,,0.00,vanprod-2.5-rc3,2013-08-09 04:21:00,
2013-08-08 22:26:00,63.1,47.6,30.09,East,89,1.0,3.0,57,0.00,,,0.00,vanprod-2.5-rc3,2013-08-09 04:26:00,
2013-08-08 22:31:00,63.2,47.3,30.10,East,90,0.0,0.0,56,0.00,,,0.00,vanprod-2.5-rc3,2013-08-09 04:31:00,
2013-08-08 22:36:00,63.3,47.4,30.10,ESE,103,0.0,0.0,56,0.00,,,0.00,vanprod-2.5-rc3,2013-08-09 04:36:00,
2013-08-08 22:41:00,63.3,47.8,30.12,SE,132,1.0,0.0,57,0.00,,,0.00,vanprod-2.5-rc3,2013-08-09 04:41:00,
2013-08-08 22:46:00,63.3,47.8,30.12,SE,140,0.0,0.0,57,0.00,,,0.00,vanprod-2.5-rc3,2013-08-09 04:46:00,
2013-08-08 22:51:00,63.2,47.3,30.10,SE,145,0.0,0.0,56,0.00,,,0.00,vanprod-2.5-rc3,2013-08-09 04:51:00,
2013-08-08 22:56:00,63.1,47.2,30.11,SE,145,0.0,0.0,56,0.00,,,0.00,vanprod-2.5-rc3,2013-08-09 04:56:00,
2013-08-08 23:01:00,63.0,47.1,30.11,SE,145,0.0,0.0,56,0.00,,,0.00,vanprod-2.5-rc3,2013-08-09 05:01:00,
2013-08-08 23:06:00,62.7,47.3,30.11,SE,145,0.0,0.0,57,0.00,,,0.00,vanprod-2.5-rc3,2013-08-09 05:06:00,
2013-08-08 23:11:00,62.5,47.1,30.11,SE,145,0.0,0.0,57,0.00,,,0.00,vanprod-2.5-rc3,2013-08-09 05:11:00,
2013-08-08 23:16:00,62.3,46.9,30.11,SE,145,0.0,0.0,57,0.00,,,0.00,vanprod-2.5-rc3,2013-08-09 05:16:00,
2013-08-08 23:21:00,62.0,47.5,30.11,SE,144,0.0,0.0,59,0.00,,,0.00,vanprod-2.5-rc3,2013-08-09 05:21:00,
2013-08-08 23:26:00,61.7,47.2,30.11,SE,143,0.0,0.0,59,0.00,,,0.00,vanprod-2.5-rc3,2013-08-09 05:26:00,
2013-08-08 23:31:00,61.3,46.9,30.13,SE,133,0.0,0.0,59,0.00,,,0.00,vanprod-2.5-rc3,2013-08-09 05:31:00,
2013-08-08 23:36:00,61.1,47.1,30.12,ESE,121,0.0,0.0,60,0.00,,,0.00,vanprod-2.5-rc3,2013-08-09 05:36:00,
2013-08-08 23:41:00,61.1,46.7,30.12,ESE,121,0.0,0.0,59,0.00,,,0.00,vanprod-2.5-rc3,2013-08-09 05:41:00,
2013-08-08 23:46:00,61.1,46.7,30.12,ESE,106,0.0,0.0,59,0.00,,,0.00,vanprod-2.5-rc3,2013-08-09 05:46:00,
2013-08-08 23:51:00,61.1,46.2,30.12,ESE,104,0.0,0.0,58,0.00,,,0.00,vanprod-2.5-rc3,2013-08-09 05:51:00,
2013-08-08 23:56:00,61.3,46.4,30.12,ESE,105,0.0,0.0,58,0.00,,,0.00,vanprod-2.5-rc3,2013-08-09 05:56:00,